Página principal
METAR-TAF:

METAR-TAF

Aeroportos :

Cambridge, Inglaterra

latitude: 52-12N, longitude: 000-11E, altura: 15 m

Observação actual do tempo

O boletim foi feito há 1 hora e 45 minutos, às 16:50 UTC
Vento 3 kt com direcção variável
Temperatura 25°C
Humidade 36%
Pressão 1024 hPa
Visibilidade 10 km ou mais
Poucas nuvensa uma altura de 4800 ft

METAR: EGSC 241650Z VRB03KT 9999 FEW048 25/09 Q1024

Hora: 19:35 (18:35 UTC)

Previsão

O boletim foi feito há 4 horas e 36 minutos, às 13:59 UTC
Previsão válida de 24 às 15 UTC a 24 às 19 UTC
Vento 5 kt de nor-nordeste
Visibilidade 10 km ou mais
sem nuvens abaixo de 1500 metros e sem cumulonimbus

TAF: EGSC 241359Z 2415/2419 02005KT CAVOK

Observações e previsões do tempo de mais de 4000 aeroportos (mensagens METAR e TAF).

As estações disponíveis são os pontos amarelos e vermelhos sobre o mapa.

Mova o rato sobre o mapa para ver o nome da estação.

Depois clique no ponto para visualizar as observações e previsões meteorológicas.

Para alterar o mapa : clique nos botões verdes com uma cruz preta para aumentar o zoom; no botão verde com uma pitada de zoom; ou nas setas verdes para mapas adjacentes.


METAR-TAF: